sensor_id;sensor_type;location;lat;lon;timestamp;temperature;humidity
3408;DHT22;1717;50.240;8.406;2023-10-19T00:00:54;13.30;99.90
3408;DHT22;1717;50.240;8.406;2023-10-19T00:03:23;13.20;99.90
3408;DHT22;1717;50.240;8.406;2023-10-19T00:05:51;13.30;99.90
3408;DHT22;1717;50.240;8.406;2023-10-19T00:08:17;13.30;99.90
3408;DHT22;1717;50.240;8.406;2023-10-19T00:10:47;13.30;99.90
3408;DHT22;1717;50.240;8.406;2023-10-19T00:13:15;13.20;99.90
3408;DHT22;1717;50.240;8.406;2023-10-19T00:15:45;13.20;99.90
3408;DHT22;1717;50.240;8.406;2023-10-19T00:18:14;13.20;99.90
3408;DHT22;1717;50.240;8.406;2023-10-19T00:20:50;13.20;99.90
3408;DHT22;1717;50.240;8.406;2023-10-19T00:23:25;13.10;99.90
3408;DHT22;1717;50.240;8.406;2023-10-19T00:25:55;13.10;99.90
3408;DHT22;1717;50.240;8.406;2023-10-19T00:28:22;13.10;99.90
3408;DHT22;1717;50.240;8.406;2023-10-19T00:30:51;13.10;99.90
3408;DHT22;1717;50.240;8.406;2023-10-19T00:33:19;13.10;99.90
3408;DHT22;1717;50.240;8.406;2023-10-19T00:35:49;13.00;99.90
3408;DHT22;1717;50.240;8.406;2023-10-19T00:38:25;13.00;99.90
3408;DHT22;1717;50.240;8.406;2023-10-19T00:41:06;13.00;99.90
3408;DHT22;1717;50.240;8.406;2023-10-19T00:43:38;13.10;99.90
3408;DHT22;1717;50.240;8.406;2023-10-19T00:46:09;13.10;99.90
3408;DHT22;1717;50.240;8.406;2023-10-19T00:48:44;13.10;99.90
3408;DHT22;1717;50.240;8.406;2023-10-19T00:51:14;13.10;99.90
3408;DHT22;1717;50.240;8.406;2023-10-19T00:53:54;13.10;99.90
3408;DHT22;1717;50.240;8.406;2023-10-19T00:56:23;13.20;99.90
3408;DHT22;1717;50.240;8.406;2023-10-19T00:58:53;13.10;99.90
3408;DHT22;1717;50.240;8.406;2023-10-19T01:01:24;13.10;99.90
3408;DHT22;1717;50.240;8.406;2023-10-19T01:03:53;13.00;99.90
3408;DHT22;1717;50.240;8.406;2023-10-19T01:06:23;13.10;99.90
3408;DHT22;1717;50.240;8.406;2023-10-19T01:08:51;13.10;99.90
3408;DHT22;1717;50.240;8.406;2023-10-19T01:11:18;13.10;99.90
3408;DHT22;1717;50.240;8.406;2023-10-19T01:13:47;13.10;99.90
3408;DHT22;1717;50.240;8.406;2023-10-19T01:16:15;13.00;99.90
3408;DHT22;1717;50.240;8.406;2023-10-19T01:18:47;13.00;99.90
3408;DHT22;1717;50.240;8.406;2023-10-19T01:21:14;13.00;99.90
3408;DHT22;1717;50.240;8.406;2023-10-19T01:23:47;12.90;99.90
3408;DHT22;1717;50.240;8.406;2023-10-19T01:26:14;13.00;99.90
3408;DHT22;1717;50.240;8.406;2023-10-19T01:28:47;13.00;99.90
3408;DHT22;1717;50.240;8.406;2023-10-19T01:31:18;13.00;99.90
3408;DHT22;1717;50.240;8.406;2023-10-19T01:33:56;13.10;99.90
3408;DHT22;1717;50.240;8.406;2023-10-19T01:36:24;13.20;99.90
3408;DHT22;1717;50.240;8.406;2023-10-19T01:38:52;13.20;99.90
3408;DHT22;1717;50.240;8.406;2023-10-19T01:41:23;13.30;99.90
3408;DHT22;1717;50.240;8.406;2023-10-19T01:43:51;13.20;99.90
3408;DHT22;1717;50.240;8.406;2023-10-19T01:46:20;13.20;99.90
3408;DHT22;1717;50.240;8.406;2023-10-19T01:48:51;13.30;99.90
3408;DHT22;1717;50.240;8.406;2023-10-19T01:51:22;13.30;99.90
3408;DHT22;1717;50.240;8.406;2023-10-19T01:53:48;13.30;99.90
3408;DHT22;1717;50.240;8.406;2023-10-19T01:56:17;13.40;99.90
3408;DHT22;1717;50.240;8.406;2023-10-19T01:58:45;13.40;99.90
3408;DHT22;1717;50.240;8.406;2023-10-19T02:01:13;13.40;99.90
3408;DHT22;1717;50.240;8.406;2023-10-19T02:03:46;13.40;99.90
3408;DHT22;1717;50.240;8.406;2023-10-19T02:06:15;13.40;99.90
3408;DHT22;1717;50.240;8.406;2023-10-19T02:08:49;13.50;99.90
3408;DHT22;1717;50.240;8.406;2023-10-19T02:11:21;13.50;99.90
3408;DHT22;1717;50.240;8.406;2023-10-19T02:13:48;13.60;99.90
3408;DHT22;1717;50.240;8.406;2023-10-19T02:16:16;13.60;99.90
3408;DHT22;1717;50.240;8.406;2023-10-19T02:18:47;13.60;99.90
3408;DHT22;1717;50.240;8.406;2023-10-19T02:21:13;13.50;99.90
3408;DHT22;1717;50.240;8.406;2023-10-19T02:23:40;13.60;99.90
3408;DHT22;1717;50.240;8.406;2023-10-19T02:26:07;13.60;99.90
3408;DHT22;1717;50.240;8.406;2023-10-19T02:28:36;13.60;99.90
3408;DHT22;1717;50.240;8.406;2023-10-19T02:31:04;13.50;99.90
3408;DHT22;1717;50.240;8.406;2023-10-19T02:33:41;13.40;99.90
3408;DHT22;1717;50.240;8.406;2023-10-19T02:36:11;13.50;99.90
3408;DHT22;1717;50.240;8.406;2023-10-19T02:38:40;13.40;99.90
3408;DHT22;1717;50.240;8.406;2023-10-19T02:41:09;13.50;99.90
3408;DHT22;1717;50.240;8.406;2023-10-19T02:43:38;13.50;99.90
3408;DHT22;1717;50.240;8.406;2023-10-19T02:46:05;13.50;99.90
3408;DHT22;1717;50.240;8.406;2023-10-19T02:48:33;13.50;99.90
3408;DHT22;1717;50.240;8.406;2023-10-19T02:50:59;13.50;99.90
3408;DHT22;1717;50.240;8.406;2023-10-19T02:53:36;13.50;99.90
3408;DHT22;1717;50.240;8.406;2023-10-19T02:56:10;13.40;99.90
3408;DHT22;1717;50.240;8.406;2023-10-19T02:58:40;13.40;99.90
3408;DHT22;1717;50.240;8.406;2023-10-19T03:01:19;13.50;99.90
3408;DHT22;1717;50.240;8.406;2023-10-19T03:03:50;13.50;99.90
3408;DHT22;1717;50.240;8.406;2023-10-19T03:06:20;13.50;99.90
3408;DHT22;1717;50.240;8.406;2023-10-19T03:08:46;13.50;99.90
3408;DHT22;1717;50.240;8.406;2023-10-19T03:11:13;13.50;99.90
3408;DHT22;1717;50.240;8.406;2023-10-19T03:13:40;13.60;99.90
3408;DHT22;1717;50.240;8.406;2023-10-19T03:16:09;13.50;99.90
3408;DHT22;1717;50.240;8.406;2023-10-19T03:18:35;13.60;99.90
3408;DHT22;1717;50.240;8.406;2023-10-19T03:21:02;13.60;99.90
3408;DHT22;1717;50.240;8.406;2023-10-19T03:23:28;13.60;99.90
3408;DHT22;1717;50.240;8.406;2023-10-19T03:25:55;13.60;99.90
3408;DHT22;1717;50.240;8.406;2023-10-19T03:28:40;13.60;99.90
3408;DHT22;1717;50.240;8.406;2023-10-19T03:31:08;13.60;99.90
3408;DHT22;1717;50.240;8.406;2023-10-19T03:33:34;13.60;99.90
3408;DHT22;1717;50.240;8.406;2023-10-19T03:36:03;13.60;99.90
3408;DHT22;1717;50.240;8.406;2023-10-19T03:38:31;13.70;99.90
3408;DHT22;1717;50.240;8.406;2023-10-19T03:41:00;13.80;99.90
3408;DHT22;1717;50.240;8.406;2023-10-19T03:43:32;13.80;99.90
3408;DHT22;1717;50.240;8.406;2023-10-19T03:46:03;13.80;99.90
3408;DHT22;1717;50.240;8.406;2023-10-19T03:48:35;13.80;99.90
3408;DHT22;1717;50.240;8.406;2023-10-19T03:51:04;13.90;99.90
3408;DHT22;1717;50.240;8.406;2023-10-19T03:53:31;13.90;99.90
3408;DHT22;1717;50.240;8.406;2023-10-19T03:55:58;14.00;99.90
3408;DHT22;1717;50.240;8.406;2023-10-19T03:58:25;14.00;99.90
3408;DHT22;1717;50.240;8.406;2023-10-19T04:00:54;14.00;99.90
3408;DHT22;1717;50.240;8.406;2023-10-19T04:03:28;13.90;99.90
3408;DHT22;1717;50.240;8.406;2023-10-19T04:05:59;13.90;99.90
3408;DHT22;1717;50.240;8.406;2023-10-19T04:08:27;13.80;99.90
3408;DHT22;1717;50.240;8.406;2023-10-19T04:10:57;13.90;99.90
3408;DHT22;1717;50.240;8.406;2023-10-19T04:13:34;13.90;99.90
3408;DHT22;1717;50.240;8.406;2023-10-19T04:16:02;13.90;99.90
3408;DHT22;1717;50.240;8.406;2023-10-19T04:18:30;14.00;99.90
3408;DHT22;1717;50.240;8.406;2023-10-19T04:20:58;14.00;99.90
3408;DHT22;1717;50.240;8.406;2023-10-19T04:23:25;14.00;99.90
3408;DHT22;1717;50.240;8.406;2023-10-19T04:25:54;14.00;99.90
3408;DHT22;1717;50.240;8.406;2023-10-19T04:28:23;14.00;99.90
3408;DHT22;1717;50.240;8.406;2023-10-19T04:30:59;14.00;99.90
3408;DHT22;1717;50.240;8.406;2023-10-19T04:33:30;14.10;99.90
3408;DHT22;1717;50.240;8.406;2023-10-19T04:35:57;14.00;99.90
3408;DHT22;1717;50.240;8.406;2023-10-19T04:38:26;14.00;99.90
3408;DHT22;1717;50.240;8.406;2023-10-19T04:40:52;14.10;99.90
3408;DHT22;1717;50.240;8.406;2023-10-19T04:43:19;14.10;99.90
3408;DHT22;1717;50.240;8.406;2023-10-19T04:45:47;14.10;99.90
3408;DHT22;1717;50.240;8.406;2023-10-19T04:48:14;14.10;99.90
3408;DHT22;1717;50.240;8.406;2023-10-19T04:50:42;14.20;99.90
3408;DHT22;1717;50.240;8.406;2023-10-19T04:53:09;14.20;99.90
3408;DHT22;1717;50.240;8.406;2023-10-19T04:55:35;14.20;99.90
3408;DHT22;1717;50.240;8.406;2023-10-19T04:58:03;14.10;99.90
3408;DHT22;1717;50.240;8.406;2023-10-19T05:00:31;14.20;99.90
3408;DHT22;1717;50.240;8.406;2023-10-19T05:02:58;14.20;99.90
3408;DHT22;1717;50.240;8.406;2023-10-19T05:05:29;14.20;99.90
3408;DHT22;1717;50.240;8.406;2023-10-19T05:07:57;14.10;99.90
3408;DHT22;1717;50.240;8.406;2023-10-19T05:10:24;14.20;99.90
3408;DHT22;1717;50.240;8.406;2023-10-19T05:12:50;14.20;99.90
3408;DHT22;1717;50.240;8.406;2023-10-19T05:15:20;14.20;99.90
3408;DHT22;1717;50.240;8.406;2023-10-19T05:17:47;14.20;99.90
3408;DHT22;1717;50.240;8.406;2023-10-19T05:20:14;14.20;99.90
3408;DHT22;1717;50.240;8.406;2023-10-19T05:22:41;14.20;99.90
3408;DHT22;1717;50.240;8.406;2023-10-19T05:25:09;14.30;99.90
3408;DHT22;1717;50.240;8.406;2023-10-19T05:27:37;14.30;99.90
3408;DHT22;1717;50.240;8.406;2023-10-19T05:30:05;14.30;99.90
3408;DHT22;1717;50.240;8.406;2023-10-19T05:32:35;14.30;99.90
3408;DHT22;1717;50.240;8.406;2023-10-19T05:35:02;14.30;99.90
3408;DHT22;1717;50.240;8.406;2023-10-19T05:37:30;14.20;99.90
3408;DHT22;1717;50.240;8.406;2023-10-19T05:39:57;14.20;99.90
3408;DHT22;1717;50.240;8.406;2023-10-19T05:42:25;14.20;99.90
3408;DHT22;1717;50.240;8.406;2023-10-19T05:44:54;14.20;99.90
3408;DHT22;1717;50.240;8.406;2023-10-19T05:47:21;14.30;99.90
3408;DHT22;1717;50.240;8.406;2023-10-19T05:49:48;14.30;99.90
3408;DHT22;1717;50.240;8.406;2023-10-19T05:52:15;14.40;99.90
3408;DHT22;1717;50.240;8.406;2023-10-19T05:54:42;14.30;99.90
3408;DHT22;1717;50.240;8.406;2023-10-19T05:57:09;14.30;99.90
3408;DHT22;1717;50.240;8.406;2023-10-19T05:59:37;14.30;99.90
3408;DHT22;1717;50.240;8.406;2023-10-19T06:02:04;14.20;99.90
3408;DHT22;1717;50.240;8.406;2023-10-19T06:04:32;14.20;99.90
3408;DHT22;1717;50.240;8.406;2023-10-19T06:07:03;14.30;99.90
3408;DHT22;1717;50.240;8.406;2023-10-19T06:09:30;14.30;99.90
3408;DHT22;1717;50.240;8.406;2023-10-19T06:11:56;14.30;99.90
3408;DHT22;1717;50.240;8.406;2023-10-19T06:14:23;14.30;99.90
3408;DHT22;1717;50.240;8.406;2023-10-19T06:16:51;14.20;99.90
3408;DHT22;1717;50.240;8.406;2023-10-19T06:19:19;14.20;99.90
3408;DHT22;1717;50.240;8.406;2023-10-19T06:21:46;14.20;99.90
3408;DHT22;1717;50.240;8.406;2023-10-19T06:24:13;14.30;99.90
3408;DHT22;1717;50.240;8.406;2023-10-19T06:26:41;14.30;99.90
3408;DHT22;1717;50.240;8.406;2023-10-19T06:29:08;14.30;99.90
3408;DHT22;1717;50.240;8.406;2023-10-19T06:31:36;14.40;99.90
3408;DHT22;1717;50.240;8.406;2023-10-19T06:34:04;14.40;99.90
3408;DHT22;1717;50.240;8.406;2023-10-19T06:36:31;14.40;99.90
3408;DHT22;1717;50.240;8.406;2023-10-19T06:39:01;14.30;99.90
3408;DHT22;1717;50.240;8.406;2023-10-19T06:41:31;14.30;99.90
3408;DHT22;1717;50.240;8.406;2023-10-19T06:43:58;14.30;99.90
3408;DHT22;1717;50.240;8.406;2023-10-19T06:46:25;14.30;99.90
3408;DHT22;1717;50.240;8.406;2023-10-19T06:48:52;14.30;99.90
3408;DHT22;1717;50.240;8.406;2023-10-19T06:51:22;14.30;99.90
3408;DHT22;1717;50.240;8.406;2023-10-19T06:53:52;14.30;99.90
3408;DHT22;1717;50.240;8.406;2023-10-19T06:56:19;14.30;99.90
3408;DHT22;1717;50.240;8.406;2023-10-19T06:58:45;14.50;99.90
3408;DHT22;1717;50.240;8.406;2023-10-19T07:01:13;14.40;99.90
3408;DHT22;1717;50.240;8.406;2023-10-19T07:03:42;14.30;99.90
3408;DHT22;1717;50.240;8.406;2023-10-19T07:06:09;14.30;99.90
3408;DHT22;1717;50.240;8.406;2023-10-19T07:08:40;14.40;99.90
3408;DHT22;1717;50.240;8.406;2023-10-19T07:11:08;14.40;99.90
3408;DHT22;1717;50.240;8.406;2023-10-19T07:13:36;14.40;99.90
3408;DHT22;1717;50.240;8.406;2023-10-19T07:16:03;14.50;99.90
3408;DHT22;1717;50.240;8.406;2023-10-19T07:18:30;14.50;99.90
3408;DHT22;1717;50.240;8.406;2023-10-19T07:20:57;14.40;99.90
3408;DHT22;1717;50.240;8.406;2023-10-19T07:23:28;14.50;99.90
3408;DHT22;1717;50.240;8.406;2023-10-19T07:25:57;14.50;99.90
3408;DHT22;1717;50.240;8.406;2023-10-19T07:28:26;14.60;99.90
3408;DHT22;1717;50.240;8.406;2023-10-19T07:30:53;14.60;99.90
3408;DHT22;1717;50.240;8.406;2023-10-19T07:33:21;14.60;99.90
3408;DHT22;1717;50.240;8.406;2023-10-19T07:35:49;14.60;99.90
3408;DHT22;1717;50.240;8.406;2023-10-19T07:38:23;14.60;99.90
3408;DHT22;1717;50.240;8.406;2023-10-19T07:40:51;14.60;99.90
3408;DHT22;1717;50.240;8.406;2023-10-19T07:43:20;14.60;99.90
3408;DHT22;1717;50.240;8.406;2023-10-19T07:45:47;14.70;99.90
3408;DHT22;1717;50.240;8.406;2023-10-19T07:48:14;14.70;99.90
3408;DHT22;1717;50.240;8.406;2023-10-19T07:50:42;14.70;99.90
3408;DHT22;1717;50.240;8.406;2023-10-19T07:53:10;14.80;99.90
3408;DHT22;1717;50.240;8.406;2023-10-19T07:55:37;14.80;99.90
3408;DHT22;1717;50.240;8.406;2023-10-19T07:58:05;14.90;99.90
3408;DHT22;1717;50.240;8.406;2023-10-19T08:00:34;14.90;99.90
3408;DHT22;1717;50.240;8.406;2023-10-19T08:03:01;15.00;99.90
3408;DHT22;1717;50.240;8.406;2023-10-19T08:05:28;15.00;99.90
3408;DHT22;1717;50.240;8.406;2023-10-19T08:07:55;15.10;99.90
3408;DHT22;1717;50.240;8.406;2023-10-19T08:10:24;15.10;99.90
3408;DHT22;1717;50.240;8.406;2023-10-19T08:12:53;15.20;99.90
3408;DHT22;1717;50.240;8.406;2023-10-19T08:15:21;15.20;99.90
3408;DHT22;1717;50.240;8.406;2023-10-19T08:17:50;15.30;99.90
3408;DHT22;1717;50.240;8.406;2023-10-19T08:20:19;15.30;99.90
3408;DHT22;1717;50.240;8.406;2023-10-19T08:22:49;15.40;99.90
3408;DHT22;1717;50.240;8.406;2023-10-19T08:25:17;15.50;99.90
3408;DHT22;1717;50.240;8.406;2023-10-19T08:27:44;15.50;99.90
3408;DHT22;1717;50.240;8.406;2023-10-19T08:30:14;15.60;99.90
3408;DHT22;1717;50.240;8.406;2023-10-19T08:32:43;15.70;99.90
3408;DHT22;1717;50.240;8.406;2023-10-19T08:35:17;15.70;99.90
3408;DHT22;1717;50.240;8.406;2023-10-19T08:37:46;15.80;99.90
3408;DHT22;1717;50.240;8.406;2023-10-19T08:40:13;15.80;99.90
3408;DHT22;1717;50.240;8.406;2023-10-19T08:42:41;15.90;99.90
3408;DHT22;1717;50.240;8.406;2023-10-19T08:45:09;16.00;99.90
3408;DHT22;1717;50.240;8.406;2023-10-19T08:47:41;16.00;99.90
3408;DHT22;1717;50.240;8.406;2023-10-19T08:50:10;16.10;99.90
3408;DHT22;1717;50.240;8.406;2023-10-19T08:52:40;16.10;99.90
3408;DHT22;1717;50.240;8.406;2023-10-19T08:55:08;16.20;99.90
3408;DHT22;1717;50.240;8.406;2023-10-19T08:57:39;16.20;99.90
3408;DHT22;1717;50.240;8.406;2023-10-19T09:00:07;16.30;99.90
3408;DHT22;1717;50.240;8.406;2023-10-19T09:02:35;16.30;99.90
3408;DHT22;1717;50.240;8.406;2023-10-19T09:05:11;16.40;99.90
3408;DHT22;1717;50.240;8.406;2023-10-19T09:07:46;16.40;99.90
3408;DHT22;1717;50.240;8.406;2023-10-19T09:10:20;16.40;99.90
3408;DHT22;1717;50.240;8.406;2023-10-19T09:12:59;16.50;99.90
3408;DHT22;1717;50.240;8.406;2023-10-19T09:15:27;16.50;99.90
3408;DHT22;1717;50.240;8.406;2023-10-19T09:17:56;16.50;99.90
3408;DHT22;1717;50.240;8.406;2023-10-19T09:20:22;16.50;99.90
3408;DHT22;1717;50.240;8.406;2023-10-19T09:22:55;16.50;99.90
3408;DHT22;1717;50.240;8.406;2023-10-19T09:25:22;16.60;99.90
3408;DHT22;1717;50.240;8.406;2023-10-19T09:27:49;16.60;99.90
3408;DHT22;1717;50.240;8.406;2023-10-19T09:30:17;16.50;99.90
3408;DHT22;1717;50.240;8.406;2023-10-19T09:32:46;16.50;99.90
3408;DHT22;1717;50.240;8.406;2023-10-19T09:35:14;16.60;99.90
3408;DHT22;1717;50.240;8.406;2023-10-19T09:37:42;16.80;99.90
3408;DHT22;1717;50.240;8.406;2023-10-19T09:40:11;16.60;99.90
3408;DHT22;1717;50.240;8.406;2023-10-19T09:42:40;16.60;99.90
3408;DHT22;1717;50.240;8.406;2023-10-19T09:45:12;16.60;99.90
3408;DHT22;1717;50.240;8.406;2023-10-19T09:47:41;16.70;99.90
3408;DHT22;1717;50.240;8.406;2023-10-19T09:50:11;16.70;99.90
3408;DHT22;1717;50.240;8.406;2023-10-19T09:52:39;16.70;99.90
3408;DHT22;1717;50.240;8.406;2023-10-19T09:55:12;16.70;99.90
3408;DHT22;1717;50.240;8.406;2023-10-19T09:57:48;16.70;99.90
3408;DHT22;1717;50.240;8.406;2023-10-19T10:00:17;16.80;99.90
3408;DHT22;1717;50.240;8.406;2023-10-19T10:02:49;16.80;99.90
3408;DHT22;1717;50.240;8.406;2023-10-19T10:05:46;16.80;99.90
3408;DHT22;1717;50.240;8.406;2023-10-19T10:08:32;16.90;99.90
3408;DHT22;1717;50.240;8.406;2023-10-19T10:11:17;16.90;99.90
3408;DHT22;1717;50.240;8.406;2023-10-19T10:13:45;17.00;99.90
3408;DHT22;1717;50.240;8.406;2023-10-19T10:16:17;17.00;99.90
3408;DHT22;1717;50.240;8.406;2023-10-19T10:18:47;17.10;99.90
3408;DHT22;1717;50.240;8.406;2023-10-19T10:21:17;17.10;99.90
3408;DHT22;1717;50.240;8.406;2023-10-19T10:23:48;17.10;99.90
3408;DHT22;1717;50.240;8.406;2023-10-19T10:26:17;17.10;99.90
3408;DHT22;1717;50.240;8.406;2023-10-19T10:28:48;17.10;99.90
3408;DHT22;1717;50.240;8.406;2023-10-19T10:31:19;17.20;99.90
3408;DHT22;1717;50.240;8.406;2023-10-19T10:33:48;17.20;99.90
3408;DHT22;1717;50.240;8.406;2023-10-19T10:36:17;17.20;99.90
3408;DHT22;1717;50.240;8.406;2023-10-19T10:38:45;17.20;99.90
3408;DHT22;1717;50.240;8.406;2023-10-19T10:41:12;17.20;99.90
3408;DHT22;1717;50.240;8.406;2023-10-19T10:43:54;17.30;99.90
3408;DHT22;1717;50.240;8.406;2023-10-19T10:46:23;17.20;99.90
3408;DHT22;1717;50.240;8.406;2023-10-19T10:48:50;17.40;99.90
3408;DHT22;1717;50.240;8.406;2023-10-19T10:51:21;17.30;99.90
3408;DHT22;1717;50.240;8.406;2023-10-19T10:53:51;17.30;99.90
3408;DHT22;1717;50.240;8.406;2023-10-19T10:56:20;17.30;99.90
3408;DHT22;1717;50.240;8.406;2023-10-19T10:58:47;17.30;99.90
3408;DHT22;1717;50.240;8.406;2023-10-19T11:01:15;17.30;99.90
3408;DHT22;1717;50.240;8.406;2023-10-19T11:04:05;17.40;99.90
3408;DHT22;1717;50.240;8.406;2023-10-19T11:06:32;17.40;99.90
3408;DHT22;1717;50.240;8.406;2023-10-19T11:09:09;17.50;99.90
3408;DHT22;1717;50.240;8.406;2023-10-19T11:11:37;17.50;99.90
3408;DHT22;1717;50.240;8.406;2023-10-19T11:14:09;17.50;99.90
3408;DHT22;1717;50.240;8.406;2023-10-19T11:16:38;17.60;99.90
3408;DHT22;1717;50.240;8.406;2023-10-19T11:19:05;17.60;99.90
3408;DHT22;1717;50.240;8.406;2023-10-19T11:21:31;17.60;99.90
3408;DHT22;1717;50.240;8.406;2023-10-19T11:23:59;17.70;99.90
3408;DHT22;1717;50.240;8.406;2023-10-19T11:26:27;17.60;99.90
3408;DHT22;1717;50.240;8.406;2023-10-19T11:28:58;17.60;99.90
3408;DHT22;1717;50.240;8.406;2023-10-19T11:31:26;17.60;99.90
3408;DHT22;1717;50.240;8.406;2023-10-19T11:34:04;17.70;99.90
3408;DHT22;1717;50.240;8.406;2023-10-19T11:36:31;17.60;99.90
3408;DHT22;1717;50.240;8.406;2023-10-19T11:38:58;17.60;99.90
3408;DHT22;1717;50.240;8.406;2023-10-19T11:41:25;17.60;99.90
3408;DHT22;1717;50.240;8.406;2023-10-19T11:43:52;17.60;99.90
3408;DHT22;1717;50.240;8.406;2023-10-19T11:46:19;17.60;99.90
3408;DHT22;1717;50.240;8.406;2023-10-19T11:48:48;17.60;99.90
3408;DHT22;1717;50.240;8.406;2023-10-19T11:51:16;17.60;99.90
3408;DHT22;1717;50.240;8.406;2023-10-19T11:53:44;17.60;99.90
3408;DHT22;1717;50.240;8.406;2023-10-19T11:56:12;17.60;99.90
3408;DHT22;1717;50.240;8.406;2023-10-19T11:58:41;17.60;99.90
3408;DHT22;1717;50.240;8.406;2023-10-19T12:01:10;17.60;99.90
3408;DHT22;1717;50.240;8.406;2023-10-19T12:03:38;17.60;99.90
3408;DHT22;1717;50.240;8.406;2023-10-19T12:06:06;17.60;99.90
3408;DHT22;1717;50.240;8.406;2023-10-19T12:08:34;17.60;99.90
3408;DHT22;1717;50.240;8.406;2023-10-19T12:11:02;17.60;99.90
3408;DHT22;1717;50.240;8.406;2023-10-19T12:13:29;17.60;99.90
3408;DHT22;1717;50.240;8.406;2023-10-19T12:15:56;17.60;99.90
3408;DHT22;1717;50.240;8.406;2023-10-19T12:18:23;17.70;99.90
3408;DHT22;1717;50.240;8.406;2023-10-19T12:20:52;17.70;99.90
3408;DHT22;1717;50.240;8.406;2023-10-19T12:23:22;17.70;99.90
3408;DHT22;1717;50.240;8.406;2023-10-19T12:25:51;17.70;99.90
3408;DHT22;1717;50.240;8.406;2023-10-19T12:28:18;17.70;99.90
3408;DHT22;1717;50.240;8.406;2023-10-19T12:30:44;17.60;99.90
3408;DHT22;1717;50.240;8.406;2023-10-19T12:33:11;17.70;99.90
3408;DHT22;1717;50.240;8.406;2023-10-19T12:35:39;17.70;99.90
3408;DHT22;1717;50.240;8.406;2023-10-19T12:38:13;17.70;99.90
3408;DHT22;1717;50.240;8.406;2023-10-19T12:40:44;17.70;99.90
3408;DHT22;1717;50.240;8.406;2023-10-19T12:43:13;17.70;99.90
3408;DHT22;1717;50.240;8.406;2023-10-19T12:45:41;17.70;99.90
3408;DHT22;1717;50.240;8.406;2023-10-19T12:48:09;17.70;99.90
3408;DHT22;1717;50.240;8.406;2023-10-19T12:50:37;17.70;99.90
3408;DHT22;1717;50.240;8.406;2023-10-19T12:53:04;17.80;99.90
3408;DHT22;1717;50.240;8.406;2023-10-19T12:55:33;17.70;99.90
3408;DHT22;1717;50.240;8.406;2023-10-19T12:58:00;17.70;99.90
3408;DHT22;1717;50.240;8.406;2023-10-19T13:00:34;17.70;99.90
3408;DHT22;1717;50.240;8.406;2023-10-19T13:03:09;17.70;99.90
3408;DHT22;1717;50.240;8.406;2023-10-19T13:05:39;17.70;99.90
3408;DHT22;1717;50.240;8.406;2023-10-19T13:08:07;17.70;99.90
3408;DHT22;1717;50.240;8.406;2023-10-19T13:10:35;17.80;99.90
3408;DHT22;1717;50.240;8.406;2023-10-19T13:13:07;17.70;99.90
3408;DHT22;1717;50.240;8.406;2023-10-19T13:15:39;17.80;99.90
3408;DHT22;1717;50.240;8.406;2023-10-19T13:18:09;17.70;99.90
3408;DHT22;1717;50.240;8.406;2023-10-19T13:20:36;17.80;99.90
3408;DHT22;1717;50.240;8.406;2023-10-19T13:23:05;17.70;99.90
3408;DHT22;1717;50.240;8.406;2023-10-19T13:25:33;17.70;99.90
3408;DHT22;1717;50.240;8.406;2023-10-19T13:28:10;17.70;99.90
3408;DHT22;1717;50.240;8.406;2023-10-19T13:30:41;17.70;99.90
3408;DHT22;1717;50.240;8.406;2023-10-19T13:33:09;17.70;99.90
3408;DHT22;1717;50.240;8.406;2023-10-19T13:35:37;17.70;99.90
3408;DHT22;1717;50.240;8.406;2023-10-19T13:38:04;17.70;99.90
3408;DHT22;1717;50.240;8.406;2023-10-19T13:40:31;17.70;99.90
3408;DHT22;1717;50.240;8.406;2023-10-19T13:42:58;17.70;99.90
3408;DHT22;1717;50.240;8.406;2023-10-19T13:45:26;17.60;99.90
3408;DHT22;1717;50.240;8.406;2023-10-19T13:47:55;17.70;99.90
3408;DHT22;1717;50.240;8.406;2023-10-19T13:50:22;17.60;99.90
3408;DHT22;1717;50.240;8.406;2023-10-19T13:52:50;17.60;99.90
3408;DHT22;1717;50.240;8.406;2023-10-19T13:55:17;17.60;99.90
3408;DHT22;1717;50.240;8.406;2023-10-19T13:57:46;17.60;99.90
3408;DHT22;1717;50.240;8.406;2023-10-19T14:00:14;17.60;99.90
3408;DHT22;1717;50.240;8.406;2023-10-19T14:02:45;17.60;99.90
3408;DHT22;1717;50.240;8.406;2023-10-19T14:05:14;17.60;99.90
3408;DHT22;1717;50.240;8.406;2023-10-19T14:07:41;17.50;99.90
3408;DHT22;1717;50.240;8.406;2023-10-19T14:10:10;17.50;99.90
3408;DHT22;1717;50.240;8.406;2023-10-19T14:12:38;17.60;99.90
3408;DHT22;1717;50.240;8.406;2023-10-19T14:15:12;17.50;99.90
3408;DHT22;1717;50.240;8.406;2023-10-19T14:17:39;17.60;99.90
3408;DHT22;1717;50.240;8.406;2023-10-19T14:20:07;17.50;99.90
3408;DHT22;1717;50.240;8.406;2023-10-19T14:22:42;17.50;99.90
3408;DHT22;1717;50.240;8.406;2023-10-19T14:25:10;17.60;99.90
3408;DHT22;1717;50.240;8.406;2023-10-19T14:27:43;17.40;99.90
3408;DHT22;1717;50.240;8.406;2023-10-19T14:30:11;17.40;99.90
3408;DHT22;1717;50.240;8.406;2023-10-19T14:32:40;17.30;99.90
3408;DHT22;1717;50.240;8.406;2023-10-19T14:35:07;17.30;99.90
3408;DHT22;1717;50.240;8.406;2023-10-19T14:37:38;17.30;99.90
3408;DHT22;1717;50.240;8.406;2023-10-19T14:40:07;17.30;99.90
3408;DHT22;1717;50.240;8.406;2023-10-19T14:42:36;17.30;99.90
3408;DHT22;1717;50.240;8.406;2023-10-19T14:45:08;17.20;99.90
3408;DHT22;1717;50.240;8.406;2023-10-19T14:47:36;17.20;99.90
3408;DHT22;1717;50.240;8.406;2023-10-19T14:50:09;17.30;99.90
3408;DHT22;1717;50.240;8.406;2023-10-19T14:52:40;17.30;99.90
3408;DHT22;1717;50.240;8.406;2023-10-19T14:55:09;17.20;99.90
3408;DHT22;1717;50.240;8.406;2023-10-19T14:57:37;17.20;99.90
3408;DHT22;1717;50.240;8.406;2023-10-19T15:00:05;17.10;99.90
3408;DHT22;1717;50.240;8.406;2023-10-19T15:02:41;17.10;99.90
3408;DHT22;1717;50.240;8.406;2023-10-19T15:05:08;17.10;99.90
3408;DHT22;1717;50.240;8.406;2023-10-19T15:07:41;17.10;99.90
3408;DHT22;1717;50.240;8.406;2023-10-19T15:10:10;17.00;99.90
3408;DHT22;1717;50.240;8.406;2023-10-19T15:12:38;17.10;99.90
3408;DHT22;1717;50.240;8.406;2023-10-19T15:15:06;17.00;99.90
3408;DHT22;1717;50.240;8.406;2023-10-19T15:17:34;17.00;99.90
3408;DHT22;1717;50.240;8.406;2023-10-19T15:20:01;17.10;99.90
3408;DHT22;1717;50.240;8.406;2023-10-19T15:22:28;17.10;99.90
3408;DHT22;1717;50.240;8.406;2023-10-19T15:24:58;17.10;99.90
3408;DHT22;1717;50.240;8.406;2023-10-19T15:27:25;17.20;99.90
3408;DHT22;1717;50.240;8.406;2023-10-19T15:29:54;17.20;99.90
3408;DHT22;1717;50.240;8.406;2023-10-19T15:32:21;17.20;99.90
3408;DHT22;1717;50.240;8.406;2023-10-19T15:34:48;17.20;99.90
3408;DHT22;1717;50.240;8.406;2023-10-19T15:37:15;17.20;99.90
3408;DHT22;1717;50.240;8.406;2023-10-19T15:39:43;17.10;99.90
3408;DHT22;1717;50.240;8.406;2023-10-19T15:42:11;17.20;99.90
3408;DHT22;1717;50.240;8.406;2023-10-19T15:44:38;17.10;99.90
3408;DHT22;1717;50.240;8.406;2023-10-19T15:47:05;17.10;99.90
3408;DHT22;1717;50.240;8.406;2023-10-19T15:49:46;17.00;99.90
3408;DHT22;1717;50.240;8.406;2023-10-19T15:52:13;17.00;99.90
3408;DHT22;1717;50.240;8.406;2023-10-19T15:54:40;17.00;99.90
3408;DHT22;1717;50.240;8.406;2023-10-19T15:57:07;17.00;99.90
3408;DHT22;1717;50.240;8.406;2023-10-19T15:59:35;17.00;99.90
3408;DHT22;1717;50.240;8.406;2023-10-19T16:02:02;17.00;99.90
3408;DHT22;1717;50.240;8.406;2023-10-19T16:04:30;17.00;99.90
3408;DHT22;1717;50.240;8.406;2023-10-19T16:06:57;17.00;99.90
3408;DHT22;1717;50.240;8.406;2023-10-19T16:09:24;17.00;99.90
3408;DHT22;1717;50.240;8.406;2023-10-19T16:11:51;17.00;99.90
3408;DHT22;1717;50.240;8.406;2023-10-19T16:14:18;16.90;99.90